This is the latest recevied weather packets stored in our database for station/object 9M4GHZ-13. If no packets are shown the sender has not sent any weather packets the latest 10 day(s).
| Time | Temp. | Humidity | Pressure | Rain* | Wind** | Luminosity | Snow |
|---|---|---|---|---|---|---|---|
| 1778149205 | 29.44° C | 75% | 1005.2 hPa | - | - | - | - |
| 1778148604 | 28.89° C | 76% | 1005.1 hPa | - | - | - | - |
| 1778148005 | 29.44° C | 76% | 1005.2 hPa | - | - | - | - |
| 1778147405 | 29.44° C | 76% | 1005.1 hPa | - | - | - | - |
| 1778146804 | 29.44° C | 75% | 1005 hPa | - | - | - | - |
| 1778146205 | 30° C | 73% | 1005 hPa | - | - | - | - |
| 1778145604 | 30.56° C | 73% | 1004.9 hPa | - | - | - | - |
| 1778145006 | 30.56° C | 73% | 1004.6 hPa | - | - | - | - |
| 1778144405 | 30.56° C | 74% | 1004.8 hPa | - | - | - | - |
| 1778143805 | 30.56° C | 72% | 1004.4 hPa | - | - | - | - |
| 1778143206 | 31.11° C | 72% | 1004.5 hPa | - | - | - | - |
| 1778142605 | 31.11° C | 71% | 1004.2 hPa | - | - | - | - |
| 1778142005 | 31.67° C | 70% | 1004.4 hPa | - | - | - | - |
| 1778141405 | 31.67° C | 70% | 1004.3 hPa | - | - | - | - |
| 1778140804 | 31.67° C | 70% | 1004.5 hPa | - | - | - | - |
| 1778140205 | 31.67° C | 72% | 1004.5 hPa | - | - | - | - |
| 1778139607 | 31.67° C | 70% | 1004.4 hPa | - | - | - | - |
| 1778139005 | 31.67° C | 71% | 1004.8 hPa | - | - | - | - |
| 1778138405 | 31.67° C | 71% | 1004.9 hPa | - | - | - | - |
| 1778137805 | 31.11° C | 72% | 1004.9 hPa | - | - | - | - |
| 1778137204 | 30.56° C | 74% | 1005 hPa | - | - | - | - |
| 1778136604 | 31.11° C | 76% | 1005.3 hPa | - | - | - | - |
| 1778136005 | 30° C | 82% | 1005.4 hPa | - | - | - | - |
| 1778135405 | 28.89° C | 85% | 1005.5 hPa | - | - | - | - |
| 1778134806 | 28.33° C | 89% | 1005.9 hPa | - | - | - | - |
* Rain since midnight (hover to see other rain measurements)
** Current wind speed in m/s (hover to see current wind gust speed)